Time;durP1;ratioP1;P1;durP2;ratioP2;P2;SDS_P1;SDS_P2;PMS_P1;PMS_P2;Temp;Humidity;BMP_temperature;BMP_pressure;BME280_temperature;BME280_humidity;BME280_pressure;Samples;Min_cycle;Max_cycle;Signal;HPM_P1;HPM_P2
2023/03/27 00:01:20;;;;;;;0.15;0.15;;;8.30;99.90;;;;;;5077450;28;20381;-78
2023/03/27 00:03:48;;;;;;;0.10;0.10;;;8.20;99.90;;;;;;5091823;28;20542;-79
2023/03/27 00:06:16;;;;;;;0.65;0.65;;;8.20;99.90;;;;;;5094065;28;20032;-78
2023/03/27 00:08:49;;;;;;;0.10;0.10;;;8.30;99.90;;;;;;5087048;28;20122;-78
2023/03/27 00:11:16;;;;;;;5.57;1.70;;;8.20;99.90;;;;;;5086784;28;20115;-79
2023/03/27 00:13:43;;;;;;;0.90;0.90;;;8.20;99.90;;;;;;5104787;28;20055;-78
2023/03/27 00:16:09;;;;;;;;;;;8.20;99.90;;;;;;5104391;28;20036;-77
2023/03/27 00:18:36;;;;;;;0.10;0.10;;;8.20;99.90;;;;;;5086281;28;19918;-78
2023/03/27 00:21:03;;;;;;;0.35;0.35;;;8.20;99.90;;;;;;5105449;28;20437;-78
2023/03/27 00:23:29;;;;;;;;;;;8.20;99.90;;;;;;5084733;28;20089;-78
2023/03/27 00:25:56;;;;;;;0.10;0.10;;;8.10;99.90;;;;;;5104248;28;19943;-78
2023/03/27 00:28:25;;;;;;;0.10;0.10;;;8.30;99.90;;;;;;5099187;28;20499;-77
2023/03/27 00:30:52;;;;;;;0.10;0.10;;;8.20;99.90;;;;;;5100717;28;20110;-78
2023/03/27 00:33:18;;;;;;;1.17;1.17;;;8.10;99.90;;;;;;5101482;28;20055;-77
2023/03/27 00:35:45;;;;;;;0.10;0.10;;;8.00;99.90;;;;;;5104677;28;20521;-80
2023/03/27 00:38:12;;;;;;;0.10;0.10;;;8.00;99.90;;;;;;5099389;28;20019;-78
2023/03/27 00:40:38;;;;;;;0.10;0.10;;;8.10;99.90;;;;;;5098814;28;20483;-78
2023/03/27 00:43:25;;;;;;;10.75;0.75;;;8.20;99.90;;;;;;5103362;28;20035;-79
2023/03/27 00:46:00;;;;;;;0.20;0.20;;;8.20;99.90;;;;;;5079675;28;20079;-79
2023/03/27 00:48:27;;;;;;;0.38;0.38;;;8.20;99.90;;;;;;5092862;28;20077;-78
2023/03/27 00:50:53;;;;;;;9.18;0.57;;;8.10;99.90;;;;;;5098104;28;20020;-79
2023/03/27 00:53:23;;;;;;;0.10;0.10;;;8.30;99.90;;;;;;5084413;28;20027;-78
2023/03/27 00:55:52;;;;;;;0.10;0.10;;;8.30;99.90;;;;;;5102804;28;20933;-78
2023/03/27 00:58:41;;;;;;;0.30;0.30;;;8.30;99.90;;;;;;5076797;28;20085;-78
2023/03/27 01:01:08;;;;;;;0.25;0.25;;;8.30;99.90;;;;;;5074859;28;20036;-78
2023/03/27 01:03:34;;;;;;;0.10;0.10;;;8.20;99.90;;;;;;5100782;28;20019;-78
2023/03/27 01:06:01;;;;;;;1.35;1.25;;;8.20;99.90;;;;;;5092272;28;20028;-79
2023/03/27 01:08:31;;;;;;;0.10;0.10;;;8.20;99.90;;;;;;5101212;27;20042;-79
2023/03/27 01:11:00;;;;;;;0.10;0.10;;;8.20;99.90;;;;;;5079429;28;20031;-78
2023/03/27 01:13:52;;;;;;;0.20;0.20;;;8.00;99.90;;;;;;5095868;28;20031;-79
2023/03/27 01:16:32;;;;;;;0.10;0.10;;;7.90;99.90;;;;;;5091948;28;20036;-78
2023/03/27 01:19:07;;;;;;;0.10;0.10;;;7.90;99.90;;;;;;5095102;28;20547;-78
2023/03/27 01:22:04;;;;;;;0.10;0.10;;;8.00;99.90;;;;;;5077280;28;20154;-79
2023/03/27 01:24:41;;;;;;;0.10;0.10;;;7.90;99.90;;;;;;5089970;28;20418;-78
2023/03/27 01:27:15;;;;;;;0.30;0.30;;;7.80;99.90;;;;;;5096144;28;20032;-78
2023/03/27 01:30:02;;;;;;;0.55;0.43;;;7.90;99.90;;;;;;5098906;28;20032;-78
2023/03/27 01:33:06;;;;;;;0.75;0.75;;;8.10;99.90;;;;;;5095686;28;20058;-79
2023/03/27 01:35:44;;;;;;;0.10;0.10;;;8.10;99.90;;;;;;5077204;28;20028;-78
2023/03/27 01:38:28;;;;;;;0.10;0.10;;;8.00;99.90;;;;;;5100608;28;20020;-79
2023/03/27 01:41:19;;;;;;;0.40;0.40;;;7.90;99.90;;;;;;5094729;28;20108;-79
2023/03/27 01:43:50;;;;;;;0.20;0.20;;;8.00;99.90;;;;;;5087393;28;20131;-78
2023/03/27 01:46:23;;;;;;;0.35;0.35;;;8.10;99.90;;;;;;5092641;28;20507;-78
2023/03/27 01:49:03;;;;;;;0.57;0.57;;;8.10;99.90;;;;;;5088592;28;20040;-79
2023/03/27 01:51:39;;;;;;;0.10;0.10;;;8.00;99.90;;;;;;5094543;28;20035;-77
2023/03/27 01:54:12;;;;;;;0.03;0.03;;;8.00;99.90;;;;;;5075105;28;20733;-78
2023/03/27 01:57:03;;;;;;;0.85;0.82;;;7.90;99.90;;;;;;5077593;28;20080;-77
2023/03/27 01:59:32;;;;;;;0.10;0.10;;;8.00;99.90;;;;;;5072135;28;20050;-78
2023/03/27 02:02:09;;;;;;;0.40;0.30;;;8.10;99.90;;;;;;5098226;28;20028;-78
2023/03/27 02:04:42;;;;;;;0.22;0.22;;;8.00;99.90;;;;;;5098014;28;20494;-80
2023/03/27 02:07:13;;;;;;;0.13;0.13;;;8.00;99.90;;;;;;5093593;27;20138;-78
2023/03/27 02:09:48;;;;;;;0.20;0.20;;;8.00;99.90;;;;;;5094913;28;20095;-78
2023/03/27 02:12:29;;;;;;;0.10;0.10;;;8.10;99.90;;;;;;5093619;28;20062;-77
2023/03/27 02:15:20;;;;;;;0.00;0.00;;;8.20;99.90;;;;;;5096857;28;20112;-77
2023/03/27 02:17:51;;;;;;;0.20;0.20;;;8.20;99.90;;;;;;5100433;28;20105;-79
2023/03/27 02:20:18;;;;;;;1.85;0.85;;;8.10;99.90;;;;;;5093285;28;20038;-79
2023/03/27 02:22:47;;;;;;;0.10;0.10;;;8.10;99.90;;;;;;5096482;28;20078;-78
2023/03/27 02:25:25;;;;;;;0.10;0.10;;;8.10;99.90;;;;;;5095859;28;20031;-78
2023/03/27 02:28:00;;;;;;;0.10;0.10;;;8.10;99.90;;;;;;5096849;28;20035;-77
2023/03/27 02:30:32;;;;;;;0.10;0.10;;;8.10;99.90;;;;;;5096497;28;20043;-78
2023/03/27 02:33:13;;;;;;;1.20;0.85;;;8.00;99.90;;;;;;5101738;28;20055;-78
2023/03/27 02:35:56;;;;;;;0.10;0.10;;;8.00;99.90;;;;;;5092060;28;20031;-78
2023/03/27 02:38:48;;;;;;;0.22;0.22;;;8.00;99.90;;;;;;5082662;28;20473;-78
2023/03/27 02:41:20;;;;;;;0.10;0.10;;;8.10;99.90;;;;;;5095523;28;20032;-78
2023/03/27 02:44:11;;;;;;;0.10;0.10;;;8.00;99.90;;;;;;5091848;28;20043;-78
2023/03/27 02:46:49;;;;;;;8.60;1.27;;;8.10;99.90;;;;;;5089094;28;20086;-78
2023/03/27 02:49:22;;;;;;;0.20;0.20;;;8.10;99.90;;;;;;5068845;28;20046;-80
2023/03/27 02:51:52;;;;;;;0.10;0.10;;;8.00;99.90;;;;;;5096664;28;20486;-79
2023/03/27 02:54:26;;;;;;;0.40;0.40;;;7.90;99.90;;;;;;5072958;28;20028;-78
2023/03/27 02:56:57;;;;;;;0.10;0.10;;;8.00;99.90;;;;;;5081057;28;20036;-78
2023/03/27 02:59:44;;;;;;;0.22;0.22;;;8.00;99.90;;;;;;5077603;28;20063;-79
2023/03/27 03:02:16;;;;;;;0.10;0.10;;;8.00;99.90;;;;;;5100610;28;20130;-78
2023/03/27 03:04:55;;;;;;;0.10;0.10;;;8.00;99.90;;;;;;5091448;28;20090;-77
2023/03/27 03:07:25;;;;;;;0.15;0.15;;;8.00;99.90;;;;;;5087083;28;20020;-77
2023/03/27 03:09:52;;;;;;;0.10;0.10;;;8.00;99.90;;;;;;5102684;28;20506;-77
2023/03/27 03:12:18;;;;;;;2.95;0.73;;;8.00;99.90;;;;;;5098790;28;20546;-77
2023/03/27 03:14:44;;;;;;;0.30;0.30;;;8.00;99.90;;;;;;5098017;28;20036;-78
2023/03/27 03:17:12;;;;;;;0.10;0.10;;;8.00;99.90;;;;;;5102693;28;20031;-78
2023/03/27 03:19:38;;;;;;;0.10;0.10;;;8.00;99.90;;;;;;5094536;28;21160;-77
2023/03/27 03:22:05;;;;;;;0.17;0.17;;;8.00;99.90;;;;;;5097313;28;20028;-78
2023/03/27 03:24:32;;;;;;;0.10;0.10;;;7.90;99.90;;;;;;5076260;28;20024;-78
2023/03/27 03:26:58;;;;;;;0.10;0.10;;;7.90;99.90;;;;;;5097757;28;20028;-79
2023/03/27 03:29:28;;;;;;;0.10;0.10;;;7.70;99.90;;;;;;5100775;28;20024;-78
2023/03/27 03:31:57;;;;;;;0.35;0.32;;;7.50;99.90;;;;;;5077775;28;20434;-77
2023/03/27 03:34:23;;;;;;;0.10;0.10;;;7.50;99.90;;;;;;5093879;28;20093;-78
2023/03/27 03:36:49;;;;;;;0.10;0.10;;;7.60;99.90;;;;;;5093070;28;20031;-79
2023/03/27 03:39:15;;;;;;;0.43;0.43;;;7.70;99.90;;;;;;5098782;28;20474;-76
2023/03/27 03:41:41;;;;;;;2.30;1.38;;;7.70;99.90;;;;;;5079415;28;20035;-77
2023/03/27 03:44:08;;;;;;;0.30;0.22;;;7.50;99.90;;;;;;5101563;28;20028;-77
2023/03/27 03:46:34;;;;;;;0.13;0.13;;;7.60;99.90;;;;;;5093067;28;20050;-78
2023/03/27 03:49:00;;;;;;;0.10;0.10;;;7.70;99.90;;;;;;5083693;28;20024;-77
2023/03/27 03:51:27;;;;;;;0.10;0.10;;;7.80;99.90;;;;;;5075244;28;20028;-77
2023/03/27 03:53:52;;;;;;;0.10;0.10;;;7.90;99.90;;;;;;5087051;28;20399;-77
2023/03/27 03:56:18;;;;;;;0.10;0.10;;;8.00;99.90;;;;;;5094210;28;20035;-78
2023/03/27 03:58:44;;;;;;;0.20;0.20;;;7.80;99.90;;;;;;5103102;28;20114;-78
2023/03/27 04:01:09;;;;;;;0.75;0.75;;;7.70;99.90;;;;;;5094424;28;20070;-79
2023/03/27 04:03:35;;;;;;;0.20;0.20;;;7.60;99.90;;;;;;5099925;28;20032;-79
2023/03/27 04:06:04;;;;;;;0.10;0.10;;;7.50;99.90;;;;;;5089292;28;20043;-79
2023/03/27 04:08:30;;;;;;;0.10;0.10;;;7.50;99.90;;;;;;5103746;28;20024;-78
2023/03/27 04:10:57;;;;;;;0.10;0.10;;;7.60;99.90;;;;;;5085370;28;20044;-78
2023/03/27 04:13:23;;;;;;;0.10;0.10;;;7.40;99.90;;;;;;5096627;28;20027;-78
2023/03/27 04:15:50;;;;;;;0.10;0.10;;;7.30;99.90;;;;;;5098752;28;20056;-78
2023/03/27 04:18:18;;;;;;;0.10;0.10;;;7.30;99.90;;;;;;5102327;28;20023;-79
2023/03/27 04:20:48;;;;;;;0.10;0.10;;;7.30;99.90;;;;;;5105476;28;20122;-78
2023/03/27 04:23:17;;;;;;;0.10;0.10;;;7.30;99.90;;;;;;5075402;28;20028;-79
2023/03/27 04:25:46;;;;;;;0.13;0.13;;;7.20;99.90;;;;;;5103643;28;20706;-79
2023/03/27 04:28:16;;;;;;;0.20;0.20;;;7.30;99.90;;;;;;5105031;28;20035;-78
2023/03/27 04:30:43;;;;;;;0.20;0.20;;;7.30;99.90;;;;;;5078320;28;20039;-78
2023/03/27 04:33:17;;;;;;;0.10;0.10;;;7.20;99.90;;;;;;5104463;28;20031;-78
2023/03/27 04:35:46;;;;;;;0.10;0.10;;;7.10;99.90;;;;;;5100451;28;20043;-77
2023/03/27 04:38:13;;;;;;;0.10;0.10;;;6.90;99.90;;;;;;5102683;28;20023;-78
2023/03/27 04:40:39;;;;;;;2.00;1.10;;;6.80;99.90;;;;;;5103823;28;20039;-78
2023/03/27 04:43:06;;;;;;;1.67;1.55;;;6.60;99.90;;;;;;5099181;28;20469;-78
2023/03/27 04:45:32;;;;;;;0.20;0.20;;;6.50;99.90;;;;;;5089476;28;20024;-78
2023/03/27 04:47:58;;;;;;;0.30;0.30;;;6.40;99.90;;;;;;5098299;28;20028;-79
2023/03/27 04:50:24;;;;;;;0.22;0.22;;;6.40;99.90;;;;;;5098277;28;20028;-78
2023/03/27 04:52:50;;;;;;;0.10;0.10;;;6.40;99.90;;;;;;5102937;28;20417;-77
2023/03/27 04:55:17;;;;;;;0.10;0.10;;;6.30;99.90;;;;;;5089447;28;20027;-76
2023/03/27 04:57:46;;;;;;;0.67;0.67;;;6.40;99.90;;;;;;5102177;28;20034;-77
2023/03/27 05:00:15;;;;;;;0.73;0.73;;;6.50;99.90;;;;;;5091740;28;20293;-79
2023/03/27 05:02:41;;;;;;;0.10;0.10;;;6.70;99.90;;;;;;5093436;27;20174;-80
2023/03/27 05:05:08;;;;;;;0.40;0.40;;;6.70;99.90;;;;;;5101969;28;20613;-76
2023/03/27 05:07:34;;;;;;;0.30;0.30;;;6.80;99.90;;;;;;5069079;28;20530;-77
2023/03/27 05:10:01;;;;;;;0.93;0.93;;;7.00;99.90;;;;;;5096903;28;20039;-78
2023/03/27 05:12:27;;;;;;;0.20;0.20;;;7.00;99.90;;;;;;5095438;28;20184;-78
2023/03/27 05:14:52;;;;;;;1.77;1.45;;;7.00;99.90;;;;;;5079740;28;20808;-77
2023/03/27 05:17:19;;;;;;;3.85;1.27;;;6.90;99.90;;;;;;5073249;28;20043;-78
2023/03/27 05:19:44;;;;;;;0.13;0.13;;;6.80;99.90;;;;;;5094149;28;20065;-80
2023/03/27 05:22:11;;;;;;;0.20;0.20;;;6.90;99.90;;;;;;5099601;28;20019;-82
2023/03/27 05:24:37;;;;;;;0.40;0.40;;;6.90;99.90;;;;;;5083093;28;20054;-82
2023/03/27 05:27:04;;;;;;;0.10;0.10;;;6.90;99.90;;;;;;5082159;28;20042;-83
2023/03/27 05:29:29;;;;;;;3.53;0.67;;;6.90;99.90;;;;;;5080605;28;20043;-82
2023/03/27 05:31:55;;;;;;;0.30;0.30;;;6.90;99.90;;;;;;5096374;28;20293;-81
2023/03/27 05:34:21;;;;;;;0.10;0.10;;;6.90;99.90;;;;;;5098561;28;20539;-79
2023/03/27 05:36:46;;;;;;;0.63;0.40;;;7.00;99.90;;;;;;5098724;28;20031;-80
2023/03/27 05:39:12;;;;;;;0.20;0.20;;;6.90;99.90;;;;;;5095597;28;20106;-79
2023/03/27 05:41:38;;;;;;;0.17;0.17;;;6.80;99.90;;;;;;5093785;28;20114;-79
2023/03/27 05:44:04;;;;;;;0.20;0.20;;;6.90;99.90;;;;;;5075615;28;20712;-79
2023/03/27 05:46:30;;;;;;;0.70;0.70;;;7.10;99.90;;;;;;5098886;28;20108;-80
2023/03/27 05:48:58;;;;;;;0.10;0.10;;;7.10;99.90;;;;;;5084111;28;20546;-79
2023/03/27 05:51:24;;;;;;;0.10;0.10;;;7.10;99.90;;;;;;5102164;28;20129;-77
2023/03/27 05:53:50;;;;;;;0.10;0.10;;;7.10;99.90;;;;;;5100728;28;20034;-77
2023/03/27 05:56:16;;;;;;;0.40;0.40;;;7.00;99.90;;;;;;5088588;28;20035;-80
2023/03/27 05:58:42;;;;;;;0.30;0.30;;;7.00;99.90;;;;;;5077602;28;20509;-77
2023/03/27 06:01:09;;;;;;;2.13;0.50;;;7.00;99.90;;;;;;5090298;28;20020;-77
2023/03/27 06:03:37;;;;;;;0.20;0.20;;;7.20;99.90;;;;;;5099702;28;20024;-77
2023/03/27 06:06:07;;;;;;;;;;;7.20;99.90;;;;;;5093736;28;20020;-77
2023/03/27 06:08:33;;;;;;;0.50;0.50;;;7.10;99.90;;;;;;5098431;28;20017;-77
2023/03/27 06:10:59;;;;;;;0.28;0.28;;;7.10;99.90;;;;;;5096652;28;20812;-76
2023/03/27 06:13:25;;;;;;;0.15;0.15;;;7.10;99.90;;;;;;5100389;28;20040;-77
2023/03/27 06:15:53;;;;;;;0.30;0.30;;;7.10;99.90;;;;;;5100669;28;20805;-79
2023/03/27 06:18:18;;;;;;;0.30;0.30;;;7.10;99.90;;;;;;5085073;28;20091;-77
2023/03/27 06:20:44;;;;;;;0.30;0.30;;;7.00;99.90;;;;;;5081876;28;20032;-77
2023/03/27 06:23:10;;;;;;;0.17;0.17;;;7.00;99.90;;;;;;5099384;28;20667;-77
2023/03/27 06:25:38;;;;;;;0.10;0.10;;;7.00;99.90;;;;;;5099223;28;20027;-77
2023/03/27 06:28:07;;;;;;;4.75;0.68;;;7.00;99.90;;;;;;5083447;28;20352;-79
2023/03/27 06:30:33;;;;;;;0.10;0.10;;;6.90;99.90;;;;;;5092267;28;20615;-77
2023/03/27 06:33:00;;;;;;;0.10;0.10;;;6.90;99.90;;;;;;5096072;28;20051;-76
2023/03/27 06:35:28;;;;;;;0.88;0.88;;;6.90;99.90;;;;;;5094455;28;20031;-80
2023/03/27 06:38:01;;;;;;;0.50;0.50;;;7.00;99.90;;;;;;5083705;28;20038;-78
2023/03/27 06:40:28;;;;;;;0.10;0.10;;;7.10;99.90;;;;;;5098635;28;20402;-78
2023/03/27 06:42:58;;;;;;;0.22;0.22;;;7.20;99.90;;;;;;5076845;28;20707;-78
2023/03/27 06:45:27;;;;;;;0.10;0.10;;;7.20;99.90;;;;;;5079900;28;20555;-77
2023/03/27 06:47:55;;;;;;;0.20;0.20;;;7.30;99.90;;;;;;5077737;28;20054;-76
2023/03/27 06:50:23;;;;;;;0.68;0.68;;;7.50;99.90;;;;;;5099570;28;20031;-76
2023/03/27 06:52:48;;;;;;;1.50;1.42;;;7.60;99.90;;;;;;5091983;28;20028;-78
2023/03/27 06:55:16;;;;;;;0.25;0.25;;;7.90;99.90;;;;;;5101050;28;20103;-76
2023/03/27 06:57:45;;;;;;;0.10;0.10;;;8.40;99.90;;;;;;5101898;28;20035;-77
2023/03/27 07:00:18;;;;;;;0.10;0.10;;;8.60;99.90;;;;;;5078553;28;20036;-77
2023/03/27 07:02:54;;;;;;;0.20;0.20;;;8.60;99.90;;;;;;5087894;28;20511;-77
2023/03/27 07:05:19;;;;;;;0.10;0.10;;;8.40;99.90;;;;;;5098310;28;20036;-76
2023/03/27 07:07:46;;;;;;;0.22;0.22;;;8.30;99.90;;;;;;5100952;28;20931;-77
2023/03/27 07:10:12;;;;;;;0.10;0.10;;;8.10;99.90;;;;;;5096845;28;20080;-76
2023/03/27 07:12:40;;;;;;;0.10;0.10;;;8.10;99.90;;;;;;5091638;28;20141;-78
2023/03/27 07:15:06;;;;;;;0.57;0.40;;;8.20;99.90;;;;;;5064350;28;20020;-78
2023/03/27 07:17:33;;;;;;;0.30;0.30;;;7.90;99.90;;;;;;5087210;28;20102;-77
2023/03/27 07:19:59;;;;;;;0.80;0.55;;;8.00;99.90;;;;;;5091055;28;20109;-77
2023/03/27 07:22:25;;;;;;;0.15;0.15;;;7.90;99.90;;;;;;5068482;28;20036;-77
2023/03/27 07:24:51;;;;;;;0.75;0.63;;;7.90;99.90;;;;;;5077799;28;20024;-81
2023/03/27 07:27:17;;;;;;;0.50;0.50;;;8.00;99.90;;;;;;5072489;28;20118;-77
2023/03/27 07:29:43;;;;;;;1.45;1.35;;;8.00;99.90;;;;;;5096977;28;20469;-77
2023/03/27 07:32:08;;;;;;;0.17;0.17;;;8.20;99.90;;;;;;5100836;28;20052;-79
2023/03/27 07:34:34;;;;;;;0.20;0.20;;;8.30;99.90;;;;;;5102398;28;20035;-76
2023/03/27 07:37:00;;;;;;;0.63;0.47;;;8.40;99.90;;;;;;5102732;28;20028;-77
2023/03/27 07:39:26;;;;;;;0.40;0.40;;;8.60;99.90;;;;;;5105527;28;20523;-78
2023/03/27 07:41:52;;;;;;;0.60;0.60;;;8.70;99.90;;;;;;5102860;28;20845;-78
2023/03/27 07:44:18;;;;;;;0.57;0.57;;;8.80;99.90;;;;;;5105592;28;20123;-77
2023/03/27 07:46:45;;;;;;;0.10;0.10;;;8.90;99.90;;;;;;5084639;28;20054;-77
2023/03/27 07:49:11;;;;;;;0.50;0.50;;;9.10;99.90;;;;;;5105514;28;20031;-78
2023/03/27 07:51:37;;;;;;;0.40;0.40;;;9.30;99.90;;;;;;5086716;28;20031;-79
2023/03/27 07:54:03;;;;;;;0.63;0.63;;;9.80;99.90;;;;;;5102921;28;20083;-77
2023/03/27 07:56:32;;;;;;;0.32;0.32;;;10.00;99.90;;;;;;5096535;28;20035;-78
2023/03/27 07:58:58;;;;;;;0.20;0.20;;;10.30;99.90;;;;;;5099738;28;20066;-77
2023/03/27 08:01:24;;;;;;;0.60;0.50;;;10.90;99.90;;;;;;5105336;28;20027;-78
2023/03/27 08:03:51;;;;;;;0.73;0.73;;;11.20;99.90;;;;;;5104843;28;20031;-78
2023/03/27 08:06:17;;;;;;;1.63;1.53;;;11.20;99.90;;;;;;5105144;28;20652;-79
2023/03/27 08:08:43;;;;;;;0.10;0.10;;;11.30;99.90;;;;;;5100623;28;20028;-77
2023/03/27 08:11:08;;;;;;;0.17;0.17;;;11.30;99.90;;;;;;5104724;28;20031;-78
2023/03/27 08:13:34;;;;;;;0.90;0.90;;;11.80;99.90;;;;;;5105580;28;20034;-77
2023/03/27 08:16:09;;;;;;;0.13;0.13;;;11.70;99.90;;;;;;5102530;28;20102;-77
2023/03/27 08:18:36;;;;;;;1.02;1.02;;;11.50;99.90;;;;;;5097705;28;20023;-77
2023/03/27 08:21:04;;;;;;;0.25;0.25;;;11.20;99.90;;;;;;5104836;28;20088;-76
2023/03/27 08:23:31;;;;;;;1.25;0.35;;;11.10;99.90;;;;;;5100434;28;20030;-77
2023/03/27 08:26:00;;;;;;;1.25;1.08;;;11.00;99.90;;;;;;5102107;28;20038;-79
2023/03/27 08:28:28;;;;;;;0.35;0.35;;;11.50;99.90;;;;;;5083104;28;20027;-78
2023/03/27 08:30:54;;;;;;;1.13;1.10;;;10.90;99.90;;;;;;5078776;28;20031;-76
2023/03/27 08:33:21;;;;;;;0.10;0.10;;;10.90;99.90;;;;;;5102328;28;20024;-76
2023/03/27 08:35:50;;;;;;;1.85;0.73;;;11.10;99.90;;;;;;5100905;28;20028;-78
2023/03/27 08:38:16;;;;;;;0.43;0.43;;;11.70;99.90;;;;;;5102860;28;20447;-78
2023/03/27 08:40:52;;;;;;;0.98;0.90;;;11.50;99.90;;;;;;5094584;28;20096;-77
2023/03/27 08:43:22;;;;;;;0.30;0.30;;;11.30;99.90;;;;;;5086327;28;20042;-76
2023/03/27 08:45:54;;;;;;;0.55;0.55;;;11.60;99.90;;;;;;5104120;28;20019;-77
2023/03/27 08:48:25;;;;;;;0.60;0.60;;;13.70;99.90;;;;;;5104238;28;20524;-76
2023/03/27 08:50:55;;;;;;;0.40;0.40;;;11.70;99.90;;;;;;5096630;28;20034;-76
2023/03/27 08:53:36;;;;;;;0.40;0.40;;;11.10;99.90;;;;;;5085693;28;20043;-76
2023/03/27 08:56:02;;;;;;;0.30;0.30;;;15.80;99.90;;;;;;5079484;28;20032;-78
2023/03/27 08:58:29;;;;;;;0.00;0.00;;;18.00;93.10;;;;;;5091037;28;20475;-76
2023/03/27 09:01:10;;;;;;;5.80;0.63;;;19.20;88.20;;;;;;5085653;28;20051;-77
2023/03/27 09:03:51;;;;;;;0.55;0.55;;;17.10;85.20;;;;;;5102922;28;20830;-78
2023/03/27 09:06:27;;;;;;;0.00;0.00;;;14.80;91.30;;;;;;5103665;28;20028;-80
2023/03/27 09:09:21;;;;;;;0.00;0.00;;;13.80;93.80;;;;;;5097886;28;20083;-78
2023/03/27 09:12:02;;;;;;;0.38;0.38;;;13.20;93.30;;;;;;5094424;28;20134;-78
2023/03/27 09:15:06;;;;;;;0.10;0.10;;;13.00;94.90;;;;;;5097982;28;20024;-76
2023/03/27 09:17:42;;;;;;;0.55;0.55;;;12.50;95.20;;;;;;5103619;28;20019;-77
2023/03/27 09:20:31;;;;;;;0.55;0.20;;;12.20;96.10;;;;;;5082654;28;20036;-77
2023/03/27 09:23:16;;;;;;;0.10;0.10;;;12.10;97.90;;;;;;5076804;28;20083;-76
2023/03/27 09:25:46;;;;;;;0.50;0.50;;;11.60;97.60;;;;;;5101008;28;20056;-76
2023/03/27 09:28:29;;;;;;;0.93;0.93;;;11.60;98.00;;;;;;5084987;28;20685;-76
2023/03/27 09:30:56;;;;;;;0.30;0.28;;;11.50;97.90;;;;;;5080025;28;20120;-75
2023/03/27 09:33:23;;;;;;;0.20;0.20;;;11.20;97.00;;;;;;5103073;28;20137;-76
2023/03/27 09:35:49;;;;;;;0.30;0.30;;;11.50;98.40;;;;;;5099456;28;20177;-79
2023/03/27 09:38:26;;;;;;;0.03;0.03;;;12.00;97.20;;;;;;5101925;28;20023;-76
2023/03/27 09:41:07;;;;;;;0.35;0.20;;;14.90;94.00;;;;;;5083305;28;20289;-76
2023/03/27 09:43:53;;;;;;;0.47;0.40;;;17.50;82.90;;;;;;5083819;28;20023;-77
2023/03/27 09:46:21;;;;;;;1.55;1.45;;;15.70;86.10;;;;;;5097917;28;20623;-77
2023/03/27 09:49:18;;;;;;;0.28;0.25;;;14.80;90.00;;;;;;5103459;28;20031;-76
2023/03/27 09:51:45;;;;;;;0.20;0.20;;;15.10;90.70;;;;;;5102548;28;20036;-76
2023/03/27 09:54:13;;;;;;;0.30;0.30;;;12.80;92.50;;;;;;5102025;28;20088;-78
2023/03/27 09:56:57;;;;;;;0.10;0.10;;;11.80;94.70;;;;;;5090861;28;20047;-76
2023/03/27 09:59:28;;;;;;;0.00;0.00;;;10.70;99.60;;;;;;5097249;28;20142;-76
2023/03/27 10:01:59;;;;;;;0.00;0.00;;;10.40;99.90;;;;;;5102592;28;20023;-75
2023/03/27 10:04:28;;;;;;;0.00;0.00;;;10.30;99.60;;;;;;5074221;28;20066;-76
2023/03/27 10:07:09;;;;;;;0.10;0.10;;;11.10;99.90;;;;;;5100901;28;20024;-76
2023/03/27 10:09:37;;;;;;;0.17;0.17;;;11.90;99.90;;;;;;5100259;28;20031;-77
2023/03/27 10:12:06;;;;;;;0.35;0.35;;;12.40;98.90;;;;;;5102790;28;20023;-75
2023/03/27 10:14:38;;;;;;;0.52;0.52;;;13.00;97.60;;;;;;5081829;28;20023;-76
2023/03/27 10:17:04;;;;;;;0.10;0.10;;;13.70;95.00;;;;;;5101495;28;20554;-77
2023/03/27 10:19:35;;;;;;;0.00;0.00;;;14.30;95.80;;;;;;5101868;28;20032;-76
2023/03/27 10:22:08;;;;;;;0.10;0.10;;;14.50;92.90;;;;;;5096404;28;20028;-76
2023/03/27 10:24:35;;;;;;;0.10;0.10;;;14.00;92.20;;;;;;5079240;28;20164;-77
2023/03/27 10:33:46;;;;;;;0.13;0.13;;;14.50;95.10;;;;;;5094063;28;20073;-77
2023/03/27 10:36:11;;;;;;;0.10;0.10;;;14.60;95.70;;;;;;5077700;28;20815;-77
2023/03/27 10:38:40;;;;;;;29.50;0.67;;;15.20;95.70;;;;;;5098684;28;20035;-78
2023/03/27 10:41:14;;;;;;;1.45;0.52;;;14.40;95.80;;;;;;5095098;28;20028;-78
2023/03/27 10:43:42;;;;;;;0.05;0.05;;;15.40;96.30;;;;;;5100886;28;20089;-76
2023/03/27 10:46:15;;;;;;;0.00;0.00;;;14.40;95.70;;;;;;5084182;28;20842;-77
2023/03/27 10:49:29;;;;;;;0.00;0.00;;;14.20;93.10;;;;;;5080847;28;20027;-78
2023/03/27 10:52:52;;;;;;;0.10;0.10;;;14.00;94.50;;;;;;5082968;28;20171;-77
2023/03/27 10:55:32;;;;;;;0.28;0.28;;;13.50;95.40;;;;;;4982947;28;20125;-78
2023/03/27 10:58:04;;;;;;;0.43;0.35;;;13.90;94.40;;;;;;4991844;28;20034;-76
2023/03/27 11:00:43;;;;;;;0.10;0.10;;;14.20;96.20;;;;;;5072932;28;20651;-75
2023/03/27 11:03:26;;;;;;;0.98;0.68;;;13.90;94.40;;;;;;5106186;28;20036;-77
2023/03/27 11:05:53;;;;;;;0.88;0.55;;;12.90;96.10;;;;;;5105114;28;20028;-76
2023/03/27 11:08:45;;;;;;;0.40;0.40;;;12.50;96.50;;;;;;5085758;28;20045;-77
2023/03/27 11:11:25;;;;;;;0.00;0.00;;;12.70;96.90;;;;;;5106027;28;20023;-77
2023/03/27 11:13:55;;;;;;;0.10;0.10;;;13.00;96.80;;;;;;5103103;28;20028;-77
2023/03/27 11:16:21;;;;;;;0.20;0.20;;;12.90;95.70;;;;;;5106177;28;20027;-77
2023/03/27 11:19:09;;;;;;;0.00;0.00;;;13.30;96.40;;;;;;5104799;28;20043;-76
2023/03/27 11:21:46;;;;;;;0.10;0.10;;;13.50;94.00;;;;;;5049977;28;20152;-76
2023/03/27 11:24:21;;;;;;;;;;;13.70;93.80;;;;;;5106797;28;20024;-79
2023/03/27 11:27:14;;;;;;;0.08;0.08;;;13.90;94.40;;;;;;5094778;28;19995;-77
2023/03/27 11:29:56;;;;;;;0.10;0.10;;;13.30;90.60;;;;;;5079710;28;20028;-78
2023/03/27 11:32:39;;;;;;;0.00;0.00;;;13.50;93.00;;;;;;5091092;27;20023;-77
2023/03/27 11:35:12;;;;;;;0.05;0.05;;;13.10;90.10;;;;;;5105475;28;20484;-76
2023/03/27 11:37:50;;;;;;;0.08;0.08;;;13.50;92.10;;;;;;5104055;28;20043;-77
2023/03/27 11:40:25;;;;;;;0.00;0.00;;;14.00;90.20;;;;;;5097091;28;20042;-76
2023/03/27 11:42:51;;;;;;;0.10;0.10;;;13.90;86.60;;;;;;5087382;28;20055;-76
2023/03/27 11:45:22;;;;;;;0.10;0.10;;;13.60;86.40;;;;;;5102003;28;20061;-77
2023/03/27 11:48:03;;;;;;;0.00;0.00;;;13.40;87.00;;;;;;5105433;28;20019;-77
2023/03/27 11:50:51;;;;;;;0.00;0.00;;;13.40;88.20;;;;;;5105763;28;20070;-77
2023/03/27 11:53:32;;;;;;;0.00;0.00;;;13.40;85.30;;;;;;5105767;28;20020;-77
2023/03/27 11:56:07;;;;;;;0.00;0.00;;;13.50;82.90;;;;;;5087318;28;20024;-76
2023/03/27 11:58:57;;;;;;;0.65;0.20;;;13.70;83.30;;;;;;5103303;28;20827;-77
2023/03/27 12:01:33;;;;;;;0.00;0.00;;;14.10;81.10;;;;;;5085052;28;20039;-76
2023/03/27 12:04:18;;;;;;;0.00;0.00;;;14.10;78.90;;;;;;5091215;28;20031;-77
2023/03/27 12:07:11;;;;;;;0.10;0.10;;;14.50;81.10;;;;;;5097480;28;20510;-77
2023/03/27 12:09:37;;;;;;;0.00;0.00;;;14.50;79.10;;;;;;5090265;28;20032;-77
2023/03/27 12:12:15;;;;;;;1.07;0.97;;;13.70;76.60;;;;;;5102597;28;20031;-77
2023/03/27 12:14:50;;;;;;;0.10;0.10;;;13.70;77.80;;;;;;5095672;28;20028;-77
2023/03/27 12:17:27;;;;;;;0.00;0.00;;;13.80;78.70;;;;;;5098619;28;20028;-77
2023/03/27 12:20:04;;;;;;;0.00;0.00;;;14.40;78.40;;;;;;5100385;28;20077;-76
2023/03/27 12:22:48;;;;;;;0.10;0.10;;;14.00;76.40;;;;;;5094185;28;20027;-76
2023/03/27 12:25:47;;;;;;;0.00;0.00;;;13.90;78.30;;;;;;5092820;28;20775;-76
2023/03/27 12:28:37;;;;;;;0.00;0.00;;;13.70;79.30;;;;;;5044445;28;20035;-76
2023/03/27 12:31:26;;;;;;;0.05;0.05;;;13.50;77.00;;;;;;5096625;28;20131;-76
2023/03/27 12:34:11;;;;;;;19.02;0.55;;;13.60;80.70;;;;;;5090814;28;20067;-76
2023/03/27 12:36:41;;;;;;;1.65;0.95;;;13.90;81.90;;;;;;5072652;28;20502;-77
2023/03/27 12:39:43;;;;;;;0.00;0.00;;;14.10;78.30;;;;;;5097843;28;20043;-77
2023/03/27 12:42:14;;;;;;;0.00;0.00;;;14.10;80.20;;;;;;5101626;28;20438;-77
2023/03/27 12:45:11;;;;;;;0.10;0.10;;;14.00;78.60;;;;;;5095769;28;20035;-77
2023/03/27 12:47:37;;;;;;;0.30;0.30;;;14.20;82.10;;;;;;5090263;28;20047;-76
2023/03/27 12:50:19;;;;;;;0.10;0.10;;;14.00;80.20;;;;;;5100703;28;20688;-76
2023/03/27 12:52:45;;;;;;;0.00;0.00;;;13.60;74.40;;;;;;5089893;28;20525;-76
2023/03/27 12:55:17;;;;;;;0.10;0.10;;;13.60;79.70;;;;;;5095415;28;20024;-77
2023/03/27 12:57:45;;;;;;;0.35;0.32;;;13.80;78.20;;;;;;5098565;28;20032;-77
2023/03/27 13:00:24;;;;;;;0.00;0.00;;;13.90;76.90;;;;;;5078092;28;20031;-78
2023/03/27 13:02:58;;;;;;;0.10;0.10;;;13.70;75.10;;;;;;5095113;28;20032;-76
2023/03/27 13:05:52;;;;;;;0.10;0.10;;;13.50;76.30;;;;;;5091890;28;20073;-78
2023/03/27 13:08:31;;;;;;;0.00;0.00;;;13.70;76.80;;;;;;5093484;28;20039;-77
2023/03/27 13:11:11;;;;;;;0.50;0.50;;;14.00;83.20;;;;;;5099542;28;20027;-77
2023/03/27 13:13:37;;;;;;;0.65;0.65;;;13.60;81.10;;;;;;5096943;28;20127;-77
2023/03/27 13:16:12;;;;;;;0.00;0.00;;;13.30;80.70;;;;;;5093522;28;20104;-77
2023/03/27 13:19:12;;;;;;;0.50;0.50;;;12.70;79.30;;;;;;5094524;28;20076;-76
2023/03/27 13:21:48;;;;;;;0.00;0.00;;;12.60;81.00;;;;;;5100672;28;20032;-76
2023/03/27 13:24:26;;;;;;;0.38;0.38;;;12.40;76.10;;;;;;5098928;28;20035;-77
2023/03/27 13:27:02;;;;;;;0.10;0.10;;;12.60;79.80;;;;;;5093467;28;20027;-76